Time;durP1;ratioP1;P1;durP2;ratioP2;P2;SDS_P1;SDS_P2;PMS_P1;PMS_P2;Temp;Humidity;BMP_temperature;BMP_pressure;BME280_temperature;BME280_humidity;BME280_pressure;Samples;Min_cycle;Max_cycle;Signal;HPM_P1;HPM_P2
2023/05/07 00:01:08;;;;;;;;;;;13.90;99.90;;;;;;5090407;28;19932;-78
2023/05/07 00:03:34;;;;;;;;;;;13.90;99.90;;;;;;5062935;28;19928;-78
2023/05/07 00:05:59;;;;;;;;;;;13.90;99.90;;;;;;5099121;28;19970;-78
2023/05/07 00:08:25;;;;;;;;;;;13.90;99.90;;;;;;5091185;28;19925;-78
2023/05/07 00:10:51;;;;;;;;;;;13.80;99.90;;;;;;5073651;28;19996;-78
2023/05/07 00:13:16;;;;;;;;;;;13.80;99.90;;;;;;5069829;28;19924;-78
2023/05/07 00:15:42;;;;;;;;;;;13.80;99.90;;;;;;5073322;28;19929;-78
2023/05/07 00:18:07;;;;;;;;;;;13.80;99.90;;;;;;5060047;28;20383;-78
2023/05/07 00:20:33;;;;;;;;;;;13.80;99.90;;;;;;5077729;28;19929;-78
2023/05/07 00:22:58;;;;;;;;;;;13.80;99.90;;;;;;5094971;28;19935;-78
2023/05/07 00:25:24;;;;;;;;;;;13.80;99.90;;;;;;5060412;28;19977;-78
2023/05/07 00:27:49;;;;;;;;;;;13.80;99.90;;;;;;5076324;28;19945;-78
2023/05/07 00:30:15;;;;;;;;;;;13.80;99.90;;;;;;5041183;28;20411;-78
2023/05/07 00:32:41;;;;;;;;;;;13.80;99.90;;;;;;5074590;28;19925;-78
2023/05/07 00:35:07;;;;;;;;;;;13.80;99.90;;;;;;5076623;28;19932;-77
2023/05/07 00:37:32;;;;;;;;;;;13.70;99.90;;;;;;5076816;28;19924;-76
2023/05/07 00:39:58;;;;;;;;;;;13.70;99.90;;;;;;5076611;28;19924;-76
2023/05/07 00:42:24;;;;;;;;;;;13.70;99.90;;;;;;5077358;28;19924;-76
2023/05/07 00:44:50;;;;;;;;;;;13.70;99.90;;;;;;5078144;28;19974;-76
2023/05/07 00:47:16;;;;;;;;;;;13.70;99.90;;;;;;5060670;28;20367;-76
2023/05/07 00:49:42;;;;;;;;;;;13.60;99.90;;;;;;5058413;28;19932;-76
2023/05/07 00:52:09;;;;;;;;;;;13.60;99.90;;;;;;5076844;28;20439;-76
2023/05/07 00:54:34;;;;;;;;;;;13.60;99.90;;;;;;5077753;28;19967;-76
2023/05/07 00:57:01;;;;;;;;;;;13.50;99.90;;;;;;5076516;28;19924;-76
2023/05/07 00:59:27;;;;;;;;;;;13.50;99.90;;;;;;5091883;28;19924;-77
2023/05/07 01:01:53;;;;;;;;;;;13.50;99.90;;;;;;5058780;28;19931;-77
2023/05/07 01:04:18;;;;;;;;;;;13.50;99.90;;;;;;5075464;28;20406;-78
2023/05/07 01:06:44;;;;;;;;;;;13.40;99.90;;;;;;5074829;28;19932;-78
2023/05/07 01:09:11;;;;;;;;;;;13.40;99.90;;;;;;5074541;28;19928;-78
2023/05/07 01:11:37;;;;;;;;;;;13.40;99.90;;;;;;5056171;28;19925;-78
2023/05/07 01:14:03;;;;;;;;;;;13.40;99.90;;;;;;5072391;28;19932;-77
2023/05/07 01:16:29;;;;;;;;;;;13.40;99.90;;;;;;5059315;28;19932;-78
2023/05/07 01:18:57;;;;;;;;;;;13.30;99.90;;;;;;5059677;28;20326;-77
2023/05/07 01:21:26;;;;;;;;;;;13.30;99.90;;;;;;5085681;28;19932;-78
2023/05/07 01:23:52;;;;;;;;;;;13.30;99.90;;;;;;5092104;28;19924;-78
2023/05/07 01:26:19;;;;;;;;;;;13.30;99.90;;;;;;5074618;28;19924;-78
2023/05/07 01:28:45;;;;;;;;;;;13.30;99.90;;;;;;5060130;28;19931;-78
2023/05/07 01:31:12;;;;;;;;;;;13.30;99.90;;;;;;5109637;28;19928;-78
2023/05/07 01:33:37;;;;;;;;;;;13.30;99.90;;;;;;5092990;28;19925;-78
2023/05/07 01:36:06;;;;;;;;;;;13.20;99.90;;;;;;5092450;28;20421;-78
2023/05/07 01:38:32;;;;;;;;;;;13.20;99.90;;;;;;5070911;28;20395;-78
2023/05/07 01:40:57;;;;;;;;;;;13.10;99.90;;;;;;5075337;28;20152;-77
2023/05/07 01:43:23;;;;;;;;;;;13.10;99.90;;;;;;5090173;28;19980;-77
2023/05/07 01:45:49;;;;;;;;;;;13.10;99.90;;;;;;5093167;28;20365;-78
2023/05/07 01:48:15;;;;;;;;;;;13.10;99.90;;;;;;5054469;28;20376;-77
2023/05/07 01:50:41;;;;;;;;;;;13.00;99.90;;;;;;5093095;28;19929;-78
2023/05/07 01:53:07;;;;;;;;;;;13.00;99.90;;;;;;5086405;28;19924;-77
2023/05/07 01:55:32;;;;;;;;;;;13.00;99.90;;;;;;5072111;28;19946;-78
2023/05/07 01:57:58;;;;;;;;;;;13.00;99.90;;;;;;5067176;28;19932;-77
2023/05/07 02:00:23;;;;;;;;;;;12.90;99.90;;;;;;5073165;28;19951;-77
2023/05/07 02:02:49;;;;;;;;;;;12.90;99.90;;;;;;5075047;28;19980;-77
2023/05/07 02:05:15;;;;;;;;;;;12.80;99.90;;;;;;5072359;28;20018;-77
2023/05/07 02:07:40;;;;;;;;;;;12.80;99.90;;;;;;5073924;28;19925;-78
2023/05/07 02:10:06;;;;;;;;;;;12.80;99.90;;;;;;5075999;28;19928;-77
2023/05/07 02:12:32;;;;;;;;;;;12.70;99.90;;;;;;5071693;28;19924;-77
2023/05/07 02:14:57;;;;;;;;;;;12.60;99.90;;;;;;5070129;28;20375;-77
2023/05/07 02:17:23;;;;;;;;;;;12.60;99.90;;;;;;5065034;28;19924;-77
2023/05/07 02:19:48;;;;;;;;;;;12.60;99.90;;;;;;5062195;28;19931;-77
2023/05/07 02:22:14;;;;;;;;;;;12.50;99.90;;;;;;5075974;28;19929;-77
2023/05/07 02:24:39;;;;;;;;;;;12.40;99.90;;;;;;5079380;28;19924;-77
2023/05/07 02:27:05;;;;;;;;;;;12.40;99.90;;;;;;5075930;28;19932;-77
2023/05/07 02:29:31;;;;;;;;;;;12.30;99.90;;;;;;5059614;28;19931;-77
2023/05/07 02:31:56;;;;;;;;;;;12.30;99.90;;;;;;5043661;28;19939;-77
2023/05/07 02:34:22;;;;;;;;;;;12.30;99.90;;;;;;5078588;28;20031;-78
2023/05/07 02:36:47;;;;;;;;;;;12.30;99.90;;;;;;5079621;28;19931;-78
2023/05/07 02:39:13;;;;;;;;;;;12.30;99.90;;;;;;5094692;28;19983;-78
2023/05/07 02:41:39;;;;;;;;;;;12.20;99.90;;;;;;5093506;28;19925;-77
2023/05/07 02:44:04;;;;;;;;;;;12.20;99.90;;;;;;5078017;28;19939;-77
2023/05/07 02:46:30;;;;;;;;;;;12.20;99.90;;;;;;5062203;28;19924;-77
2023/05/07 02:48:55;;;;;;;;;;;12.20;99.90;;;;;;5062802;28;19935;-77
2023/05/07 02:51:22;;;;;;;;;;;12.10;99.90;;;;;;5074310;28;19932;-78
2023/05/07 02:53:47;;;;;;;;;;;12.10;99.90;;;;;;5093042;28;19931;-78
2023/05/07 02:56:13;;;;;;;;;;;12.10;99.90;;;;;;5060067;28;19980;-77
2023/05/07 02:58:44;;;;;;;;;;;12.00;99.90;;;;;;5095571;28;19928;-78
2023/05/07 03:01:10;;;;;;;;;;;12.00;99.90;;;;;;5059596;28;20348;-78
2023/05/07 03:03:35;;;;;;;;;;;12.00;99.90;;;;;;5077890;28;19939;-78
2023/05/07 03:06:01;;;;;;;;;;;12.00;99.90;;;;;;5075082;28;19982;-78
2023/05/07 03:08:27;;;;;;;;;;;11.90;99.90;;;;;;5074945;28;19970;-78
2023/05/07 03:10:52;;;;;;;;;;;11.90;99.90;;;;;;5078652;28;20110;-77
2023/05/07 03:13:18;;;;;;;;;;;11.90;99.90;;;;;;5091626;28;19925;-78
2023/05/07 03:15:44;;;;;;;;;;;11.90;99.90;;;;;;5095661;28;19983;-77
2023/05/07 03:18:10;;;;;;;;;;;11.90;99.90;;;;;;5076811;28;20019;-78
2023/05/07 03:20:36;;;;;;;;;;;11.80;99.90;;;;;;5077210;28;20025;-77
2023/05/07 03:23:02;;;;;;;;;;;11.80;99.90;;;;;;5075035;28;19935;-78
2023/05/07 03:25:27;;;;;;;;;;;11.80;99.90;;;;;;5092806;28;19960;-78
2023/05/07 03:27:53;;;;;;;;;;;11.80;99.90;;;;;;5094301;28;19964;-77
2023/05/07 03:30:18;;;;;;;;;;;11.70;99.90;;;;;;5093555;28;20371;-78
2023/05/07 03:32:44;;;;;;;;;;;11.80;99.90;;;;;;5094376;28;19987;-78
2023/05/07 03:35:09;;;;;;;;;;;11.70;99.90;;;;;;5058718;28;19929;-78
2023/05/07 03:37:35;;;;;;;;;;;11.70;99.90;;;;;;5078091;28;19936;-78
2023/05/07 03:40:01;;;;;;;;;;;11.70;99.90;;;;;;5076134;28;20454;-77
2023/05/07 03:42:28;;;;;;;;;;;11.70;99.90;;;;;;5075071;28;19995;-78
2023/05/07 03:44:53;;;;;;;;;;;11.60;99.90;;;;;;5093966;28;19959;-78
2023/05/07 03:47:19;;;;;;;;;;;11.60;99.90;;;;;;5077194;28;19931;-78
2023/05/07 03:49:45;;;;;;;;;;;11.60;99.90;;;;;;5077014;28;20064;-77
2023/05/07 03:52:10;;;;;;;;;;;11.60;99.90;;;;;;5059971;28;19924;-77
2023/05/07 03:54:36;;;;;;;;;;;11.60;99.90;;;;;;5073631;28;19946;-77
2023/05/07 03:57:01;;;;;;;;;;;11.60;99.90;;;;;;5093305;28;19928;-77
2023/05/07 03:59:27;;;;;;;;;;;11.60;99.90;;;;;;5077208;28;19935;-77
2023/05/07 04:01:53;;;;;;;;;;;11.60;99.90;;;;;;5076415;28;19924;-77
2023/05/07 04:04:18;;;;;;;;;;;11.60;99.90;;;;;;5075350;28;20003;-77
2023/05/07 04:06:44;;;;;;;;;;;11.60;99.90;;;;;;5093864;28;19924;-77
2023/05/07 04:09:09;;;;;;;;;;;11.60;99.90;;;;;;5075145;28;19980;-77
2023/05/07 04:11:35;;;;;;;;;;;11.60;99.90;;;;;;5068606;28;19925;-77
2023/05/07 04:14:01;;;;;;;;;;;11.50;99.90;;;;;;5109760;28;20338;-77
2023/05/07 04:16:26;;;;;;;;;;;11.50;99.90;;;;;;5074884;28;19936;-77
2023/05/07 04:18:52;;;;;;;;;;;11.50;99.90;;;;;;5092630;28;20007;-77
2023/05/07 04:21:19;;;;;;;;;;;11.60;99.90;;;;;;5032535;28;20070;-78
2023/05/07 04:23:45;;;;;;;;;;;11.50;99.90;;;;;;5093421;28;19925;-77
2023/05/07 04:26:11;;;;;;;;;;;11.50;99.90;;;;;;5074948;28;20458;-77
2023/05/07 04:28:36;;;;;;;;;;;11.50;99.90;;;;;;5069943;28;20317;-77
2023/05/07 04:31:02;;;;;;;;;;;11.50;99.90;;;;;;5043032;28;20441;-77
2023/05/07 04:33:27;;;;;;;;;;;11.60;99.90;;;;;;5095102;28;20400;-78
2023/05/07 04:35:53;;;;;;;;;;;11.60;99.90;;;;;;5092089;28;20009;-77
2023/05/07 04:38:19;;;;;;;;;;;11.60;99.90;;;;;;5075056;28;19940;-77
2023/05/07 04:40:44;;;;;;;;;;;11.60;99.90;;;;;;5043182;28;19974;-77
2023/05/07 04:43:10;;;;;;;;;;;11.60;99.90;;;;;;5072914;28;20019;-77
2023/05/07 04:45:36;;;;;;;;;;;11.60;99.90;;;;;;5090697;28;19979;-77
2023/05/07 04:48:01;;;;;;;;;;;11.60;99.90;;;;;;5075575;28;20239;-78
2023/05/07 04:50:27;;;;;;;;;;;11.60;99.90;;;;;;5076892;28;19935;-78
2023/05/07 04:52:53;;;;;;;;;;;11.60;99.90;;;;;;5039689;28;20019;-77
2023/05/07 04:55:18;;;;;;;;;;;11.60;99.90;;;;;;5072977;28;19950;-78
2023/05/07 04:57:45;;;;;;;;;;;11.70;99.90;;;;;;5073758;28;19933;-78
2023/05/07 05:00:11;;;;;;;;;;;11.60;99.90;;;;;;5076176;28;19925;-78
2023/05/07 05:02:37;;;;;;;;;;;11.70;99.90;;;;;;5093211;28;19971;-77
2023/05/07 05:05:02;;;;;;;;;;;11.60;99.90;;;;;;5092251;28;19944;-77
2023/05/07 05:07:28;;;;;;;;;;;11.70;99.90;;;;;;5040973;28;20011;-77
2023/05/07 05:09:55;;;;;;;;;;;11.70;99.90;;;;;;5074832;28;19932;-77
2023/05/07 05:12:21;;;;;;;;;;;11.70;99.90;;;;;;5086931;28;19929;-78
2023/05/07 05:14:46;;;;;;;;;;;11.70;99.90;;;;;;5033477;28;20376;-77
2023/05/07 05:17:12;;;;;;;;;;;11.70;99.90;;;;;;5074128;28;20442;-77
2023/05/07 05:19:38;;;;;;;;;;;11.70;99.90;;;;;;5076913;28;19928;-77
2023/05/07 05:22:03;;;;;;;;;;;11.70;99.90;;;;;;5089772;28;19986;-78
2023/05/07 05:24:29;;;;;;;;;;;11.80;99.90;;;;;;5094251;28;19924;-77
2023/05/07 05:26:56;;;;;;;;;;;11.80;99.90;;;;;;5075161;28;19925;-77
2023/05/07 05:29:21;;;;;;;;;;;11.80;99.90;;;;;;5069761;28;20302;-77
2023/05/07 05:31:47;;;;;;;;;;;11.80;99.90;;;;;;5076898;28;19970;-77
2023/05/07 05:34:13;;;;;;;;;;;11.90;99.90;;;;;;5058783;28;19956;-77
2023/05/07 05:36:38;;;;;;;;;;;11.90;99.90;;;;;;5077601;28;19988;-77
2023/05/07 05:39:04;;;;;;;;;;;11.90;99.90;;;;;;5058474;28;20429;-78
2023/05/07 05:41:30;;;;;;;;;;;12.00;99.90;;;;;;5094257;28;19932;-77
2023/05/07 05:43:55;;;;;;;;;;;12.00;99.90;;;;;;5075295;28;19988;-78
2023/05/07 05:46:21;;;;;;;;;;;12.00;99.90;;;;;;5076832;28;19947;-77
2023/05/07 05:48:47;;;;;;;;;;;12.00;99.90;;;;;;5076199;28;20346;-77
2023/05/07 05:51:12;;;;;;;;;;;12.00;99.90;;;;;;5061333;28;19924;-77
2023/05/07 05:53:38;;;;;;;;;;;12.10;99.90;;;;;;5040571;28;19995;-77
2023/05/07 05:56:03;;;;;;;;;;;12.10;99.90;;;;;;5105273;28;19932;-78
2023/05/07 05:58:29;;;;;;;;;;;12.10;99.90;;;;;;5079196;28;19929;-78
2023/05/07 06:00:56;;;;;;;;;;;12.10;99.90;;;;;;5079690;28;20399;-78
2023/05/07 06:03:21;;;;;;;;;;;12.10;99.90;;;;;;5074983;28;20474;-77
2023/05/07 06:05:47;;;;;;;;;;;12.20;99.90;;;;;;5076363;28;19925;-77
2023/05/07 06:08:13;;;;;;;;;;;12.20;99.90;;;;;;5059779;28;19991;-78
2023/05/07 06:10:38;;;;;;;;;;;12.20;99.90;;;;;;5089562;28;19931;-78
2023/05/07 06:13:04;;;;;;;;;;;12.20;99.90;;;;;;5073793;28;19933;-77
2023/05/07 06:15:30;;;;;;;;;;;12.30;99.90;;;;;;5061606;28;20295;-77
2023/05/07 06:17:57;;;;;;;;;;;12.30;99.90;;;;;;5059059;28;19924;-78
2023/05/07 06:20:22;;;;;;;;;;;12.30;99.90;;;;;;5091937;28;20444;-78
2023/05/07 06:22:48;;;;;;;;;;;12.30;99.90;;;;;;5088820;28;19971;-77
2023/05/07 06:25:14;;;;;;;;;;;12.30;99.90;;;;;;5076311;28;19924;-77
2023/05/07 06:27:40;;;;;;;;;;;12.30;99.90;;;;;;5092322;28;19931;-77
2023/05/07 06:30:06;;;;;;;;;;;12.30;99.90;;;;;;5042036;28;20445;-78
2023/05/07 06:32:31;;;;;;;;;;;12.30;99.90;;;;;;5061514;28;20315;-77
2023/05/07 06:34:57;;;;;;;;;;;12.40;99.90;;;;;;5044841;28;19980;-77
2023/05/07 06:37:23;;;;;;;;;;;12.40;99.90;;;;;;5102282;28;19932;-77
2023/05/07 06:39:48;;;;;;;;;;;12.40;99.90;;;;;;5076887;28;19925;-77
2023/05/07 06:42:14;;;;;;;;;;;12.40;99.90;;;;;;5079392;28;19951;-77
2023/05/07 06:44:39;;;;;;;;;;;12.50;99.90;;;;;;5097049;28;19932;-77
2023/05/07 06:47:05;;;;;;;;;;;12.60;99.90;;;;;;5094702;28;19925;-77
2023/05/07 06:49:31;;;;;;;;;;;12.70;99.90;;;;;;5080368;28;19928;-77
2023/05/07 06:51:56;;;;;;;;;;;12.80;99.90;;;;;;5061406;28;19955;-78
2023/05/07 06:54:22;;;;;;;;;;;12.90;99.90;;;;;;5079311;28;20332;-78
2023/05/07 06:56:48;;;;;;;;;;;13.10;99.90;;;;;;5091873;28;20603;-77
2023/05/07 06:59:13;;;;;;;;;;;13.20;99.90;;;;;;5092560;28;19995;-78
2023/05/07 07:01:39;;;;;;;;;;;13.40;99.90;;;;;;5078777;28;19999;-78
2023/05/07 07:04:05;;;;;;;;;;;13.50;99.90;;;;;;5093827;28;20000;-78
2023/05/07 07:06:31;;;;;;;;;;;13.70;99.90;;;;;;5095056;28;20347;-78
2023/05/07 07:08:57;;;;;;;;;;;13.80;99.90;;;;;;5070631;28;19960;-78
2023/05/07 07:11:23;;;;;;;;;;;13.90;99.90;;;;;;5094262;28;19924;-78
2023/05/07 07:13:48;;;;;;;;;;;13.90;99.90;;;;;;5093072;28;19924;-78
2023/05/07 07:16:14;;;;;;;;;;;13.90;99.90;;;;;;5078550;28;19931;-78
2023/05/07 07:18:40;;;;;;;;;;;13.90;99.90;;;;;;5076419;28;19925;-78
2023/05/07 07:21:05;;;;;;;;;;;14.00;99.90;;;;;;5041508;28;19924;-78
2023/05/07 07:23:31;;;;;;;;;;;14.00;99.90;;;;;;5041021;28;19929;-77
2023/05/07 07:25:56;;;;;;;;;;;14.10;99.90;;;;;;5078399;28;19928;-78
2023/05/07 07:28:22;;;;;;;;;;;14.20;99.90;;;;;;5044418;28;20015;-78
2023/05/07 07:30:47;;;;;;;;;;;14.20;99.90;;;;;;5068394;28;19928;-78
2023/05/07 07:33:13;;;;;;;;;;;14.30;99.90;;;;;;5060489;28;20582;-78
2023/05/07 07:35:39;;;;;;;;;;;14.30;99.90;;;;;;5094296;28;19928;-78
2023/05/07 07:38:05;;;;;;;;;;;14.40;99.90;;;;;;5092944;28;19932;-78
2023/05/07 07:40:30;;;;;;;;;;;14.50;99.90;;;;;;5094093;28;20406;-77
2023/05/07 07:42:56;;;;;;;;;;;14.70;99.90;;;;;;5092349;28;19929;-78
2023/05/07 07:45:22;;;;;;;;;;;14.80;99.90;;;;;;5076950;28;20148;-77
2023/05/07 07:47:47;;;;;;;;;;;14.80;99.90;;;;;;5042590;28;19944;-77
2023/05/07 07:50:13;;;;;;;;;;;14.90;99.90;;;;;;5077134;28;20015;-78
2023/05/07 07:52:39;;;;;;;;;;;15.00;99.90;;;;;;5095710;28;19929;-78
2023/05/07 07:55:04;;;;;;;;;;;15.10;99.90;;;;;;5065249;28;20397;-78
2023/05/07 07:57:30;;;;;;;;;;;15.10;99.90;;;;;;5092545;28;19924;-78
2023/05/07 07:59:56;;;;;;;;;;;15.00;99.90;;;;;;5059007;28;20042;-78
2023/05/07 08:02:22;;;;;;;;;;;15.00;99.90;;;;;;5076501;28;19976;-78
2023/05/07 08:04:47;;;;;;;;;;;15.00;99.90;;;;;;5059878;28;19932;-78
2023/05/07 08:07:13;;;;;;;;;;;15.10;99.90;;;;;;5093662;28;19924;-78
2023/05/07 08:09:39;;;;;;;;;;;15.20;99.90;;;;;;5060471;28;19929;-77
2023/05/07 08:12:07;;;;;;;;;;;15.30;99.90;;;;;;5091042;28;19932;-78
2023/05/07 08:14:33;;;;;;;;;;;15.30;99.90;;;;;;5094139;28;20450;-76
2023/05/07 08:16:59;;;;;;;;;;;15.30;99.90;;;;;;5091295;28;19928;-78
2023/05/07 08:19:24;;;;;;;;;;;15.40;99.90;;;;;;5076009;28;20018;-78
2023/05/07 08:21:50;;;;;;;;;;;15.50;99.90;;;;;;5071948;28;19992;-78
2023/05/07 08:24:16;;;;;;;;;;;15.60;99.90;;;;;;5043554;28;19928;-78
2023/05/07 08:26:42;;;;;;;;;;;15.70;99.90;;;;;;5054543;28;19924;-78
2023/05/07 08:29:08;;;;;;;;;;;15.90;99.90;;;;;;5059594;28;19928;-78
2023/05/07 08:31:34;;;;;;;;;;;16.10;99.90;;;;;;5069396;28;19970;-78
2023/05/07 08:33:59;;;;;;;;;;;16.20;99.90;;;;;;5055365;28;19931;-78
2023/05/07 08:36:25;;;;;;;;;;;16.30;99.90;;;;;;5076512;28;19963;-78
2023/05/07 08:38:51;;;;;;;;;;;16.30;99.90;;;;;;5074145;28;19931;-78
2023/05/07 08:41:16;;;;;;;;;;;16.60;99.90;;;;;;5077105;28;19967;-78
2023/05/07 08:43:46;;;;;;;;;;;16.90;99.90;;;;;;5089746;28;19981;-78
2023/05/07 08:46:15;;;;;;;;;;;17.10;99.90;;;;;;5051602;28;19930;-78
2023/05/07 08:48:41;;;;;;;;;;;17.50;99.90;;;;;;5059645;28;19924;-78
2023/05/07 08:51:07;;;;;;;;;;;17.90;99.90;;;;;;5059423;28;19931;-78
2023/05/07 08:53:33;;;;;;;;;;;18.20;99.90;;;;;;5069759;28;19931;-78
2023/05/07 08:55:58;;;;;;;;;;;18.40;99.90;;;;;;5102880;28;19954;-78
2023/05/07 08:58:24;;;;;;;;;;;18.70;99.90;;;;;;5072394;28;19932;-78
2023/05/07 09:00:51;;;;;;;;;;;18.90;99.90;;;;;;5092483;28;19995;-78
2023/05/07 09:03:17;;;;;;;;;;;19.00;99.90;;;;;;5040214;28;20027;-78
2023/05/07 09:05:43;;;;;;;;;;;19.00;99.90;;;;;;5091775;28;20248;-78
2023/05/07 09:08:09;;;;;;;;;;;19.00;99.90;;;;;;5072687;28;19928;-78
2023/05/07 09:10:35;;;;;;;;;;;19.10;99.90;;;;;;5049469;28;19928;-78
2023/05/07 09:13:00;;;;;;;;;;;19.30;99.90;;;;;;5056129;28;19932;-78
2023/05/07 09:15:27;;;;;;;;;;;19.20;99.90;;;;;;5068277;28;19937;-78
2023/05/07 09:17:53;;;;;;;;;;;19.00;99.90;;;;;;5088046;28;19924;-78
2023/05/07 09:20:19;;;;;;;;;;;18.90;99.90;;;;;;5076272;28;19934;-79
2023/05/07 09:22:45;;;;;;;;;;;18.70;99.90;;;;;;5075963;28;20054;-77
2023/05/07 09:25:10;;;;;;;;;;;18.60;99.90;;;;;;5075460;28;20393;-78
2023/05/07 09:27:36;;;;;;;;;;;18.50;99.90;;;;;;5096882;28;20401;-78
2023/05/07 09:30:06;;;;;;;;;;;18.50;99.90;;;;;;5063006;28;20411;-78
2023/05/07 09:32:34;;;;;;;;;;;18.70;99.90;;;;;;5080127;28;19924;-78
2023/05/07 09:34:59;;;;;;;;;;;19.10;99.90;;;;;;5063531;28;19924;-78
2023/05/07 09:37:25;;;;;;;;;;;19.50;99.90;;;;;;5081594;28;19978;-78
2023/05/07 09:39:51;;;;;;;;;;;19.70;99.90;;;;;;5079916;28;20372;-78
2023/05/07 09:42:22;;;;;;;;;;;19.80;99.90;;;;;;5094034;28;20043;-78
2023/05/07 09:44:48;;;;;;;;;;;19.90;99.90;;;;;;5097205;28;19924;-78
2023/05/07 09:47:16;;;;;;;;;;;20.20;99.90;;;;;;5077795;28;19935;-78
2023/05/07 09:49:44;;;;;;;;;;;20.40;99.90;;;;;;5063325;28;19959;-78
2023/05/07 09:52:10;;;;;;;;;;;20.40;99.90;;;;;;5079318;28;19924;-79
2023/05/07 09:54:37;;;;;;;;;;;20.20;99.90;;;;;;5062674;28;19928;-78
2023/05/07 09:57:03;;;;;;;;;;;20.00;99.90;;;;;;5079580;28;19924;-79
2023/05/07 09:59:31;;;;;;;;;;;20.10;99.90;;;;;;5078047;28;19925;-79
2023/05/07 10:01:57;;;;;;;;;;;20.30;99.90;;;;;;5062930;28;20369;-78
2023/05/07 10:04:22;;;;;;;;;;;20.60;99.90;;;;;;5061208;28;19980;-79
2023/05/07 10:06:48;;;;;;;;;;;20.80;99.90;;;;;;5081034;28;19947;-79
2023/05/07 10:09:15;;;;;;;;;;;21.00;99.90;;;;;;5079888;28;19925;-79
2023/05/07 10:11:40;;;;;;;;;;;21.20;99.90;;;;;;5080659;28;19931;-78
2023/05/07 10:14:07;;;;;;;;;;;21.30;99.90;;;;;;5093305;28;19932;-79
2023/05/07 10:16:36;;;;;;;;;;;21.40;99.90;;;;;;5060186;28;19925;-79
2023/05/07 10:19:05;;;;;;;;;;;21.40;99.90;;;;;;5070530;28;19937;-78
2023/05/07 10:21:34;;;;;;;;;;;21.20;99.90;;;;;;5063067;28;19935;-79
2023/05/07 10:24:05;;;;;;;;;;;21.00;99.90;;;;;;5060833;28;19980;-78
2023/05/07 10:26:32;;;;;;;;;;;20.90;99.90;;;;;;5080137;28;19924;-79
2023/05/07 10:29:01;;;;;;;;;;;20.70;99.90;;;;;;5079982;28;19940;-78
2023/05/07 10:31:42;;;;;;;;;;;20.50;99.90;;;;;;5063621;28;19928;-78
2023/05/07 10:34:09;;;;;;;;;;;20.50;99.90;;;;;;5095355;28;19925;-79
2023/05/07 10:36:35;;;;;;;;;;;20.40;99.90;;;;;;5088691;28;19924;-79
2023/05/07 10:39:01;;;;;;;;;;;20.60;99.90;;;;;;5096075;28;19967;-79
2023/05/07 10:41:26;;;;;;;;;;;20.70;99.90;;;;;;5063846;28;20392;-79
2023/05/07 10:43:52;;;;;;;;;;;20.90;99.90;;;;;;5089316;28;19925;-79
2023/05/07 10:46:19;;;;;;;;;;;20.80;99.90;;;;;;5057020;28;19940;-79
2023/05/07 10:49:00;;;;;;;;;;;20.70;99.90;;;;;;5095746;28;19924;-79
2023/05/07 10:51:26;;;;;;;;;;;20.60;99.90;;;;;;5062371;28;19925;-79
2023/05/07 10:54:24;;;;;;;;;;;20.50;99.90;;;;;;5062074;28;19928;-80
2023/05/07 10:56:50;;;;;;;;;;;20.50;99.90;;;;;;5037793;28;19924;-79
2023/05/07 10:59:30;;;;;;;;;;;20.60;99.90;;;;;;5078543;28;19928;-79
2023/05/07 11:01:57;;;;;;;;;;;20.70;99.90;;;;;;5079209;28;20432;-79
2023/05/07 11:04:27;;;;;;;;;;;20.60;99.90;;;;;;5056181;28;19944;-79
2023/05/07 11:07:08;;;;;;;;;;;20.50;99.90;;;;;;5074827;28;19979;-79
2023/05/07 11:09:52;;;;;;;;;;;20.50;99.90;;;;;;5076767;28;19931;-79
2023/05/07 11:12:36;;;;;;;;;;;20.70;99.90;;;;;;5099293;28;19954;-79
2023/05/07 11:15:09;;;;;;;;;;;20.80;99.90;;;;;;5052832;28;19943;-79
2023/05/07 11:17:51;;;;;;;;;;;20.70;99.90;;;;;;5066176;28;19967;-79
2023/05/07 11:20:17;;;;;;;;;;;20.70;99.90;;;;;;5081268;28;20514;-79
2023/05/07 11:22:43;;;;;;;;;;;20.60;99.90;;;;;;5082750;28;19928;-79
2023/05/07 11:25:08;;;;;;;;;;;20.60;99.90;;;;;;5095385;28;20393;-79
2023/05/07 11:27:34;;;;;;;;;;;20.80;99.90;;;;;;5095778;28;19924;-79
2023/05/07 11:30:02;;;;;;;;;;;21.00;99.90;;;;;;5077542;28;19968;-79
2023/05/07 11:32:29;;;;;;;;;;;21.30;99.90;;;;;;5085076;28;19932;-79
2023/05/07 11:34:55;;;;;;;;;;;21.50;99.90;;;;;;5090707;28;19924;-79
2023/05/07 11:37:22;;;;;;;;;;;21.40;99.90;;;;;;5055231;28;19925;-80
2023/05/07 11:39:47;;;;;;;;;;;21.30;99.90;;;;;;5043172;28;19931;-80
2023/05/07 11:42:27;;;;;;;;;;;21.40;99.90;;;;;;5038955;28;19925;-81
2023/05/07 11:44:52;;;;;;;;;;;21.40;99.90;;;;;;5090840;28;19970;-79
2023/05/07 11:47:18;;;;;;;;;;;21.40;99.90;;;;;;5056166;28;20388;-79
2023/05/07 11:49:48;;;;;;;;;;;21.40;99.90;;;;;;5055078;28;20485;-79
2023/05/07 11:52:14;;;;;;;;;;;21.40;99.90;;;;;;5040692;28;19925;-79
2023/05/07 11:54:39;;;;;;;;;;;21.40;99.90;;;;;;5044224;28;19931;-80
2023/05/07 11:57:07;;;;;;;;;;;21.60;99.90;;;;;;5078400;28;19932;-79
2023/05/07 11:59:40;;;;;;;;;;;21.70;99.90;;;;;;5061986;28;19971;-79
2023/05/07 12:02:06;;;;;;;;;;;21.90;99.90;;;;;;5078902;28;19924;-79
2023/05/07 12:04:31;;;;;;;;;;;21.90;99.90;;;;;;5059825;28;20567;-79
2023/05/07 12:06:57;;;;;;;;;;;21.80;99.90;;;;;;5078995;28;19959;-79
2023/05/07 12:09:23;;;;;;;;;;;21.50;99.90;;;;;;5061187;28;19928;-79
2023/05/07 12:11:48;;;;;;;;;;;21.20;99.90;;;;;;5058402;28;19925;-79
2023/05/07 12:14:15;;;;;;;;;;;21.00;99.90;;;;;;5095264;28;20050;-79
2023/05/07 12:16:41;;;;;;;;;;;20.80;99.90;;;;;;5094514;28;19924;-79
2023/05/07 12:19:08;;;;;;;;;;;20.70;99.90;;;;;;5061701;28;19928;-80
2023/05/07 12:21:35;;;;;;;;;;;20.60;99.90;;;;;;5078288;28;19931;-80
2023/05/07 12:24:01;;;;;;;;;;;20.50;99.90;;;;;;5095241;28;19928;-79
2023/05/07 12:26:27;;;;;;;;;;;20.20;99.90;;;;;;5058376;28;19928;-79
2023/05/07 12:28:52;;;;;;;;;;;20.30;99.90;;;;;;5075803;28;20406;-80
2023/05/07 12:31:18;;;;;;;;;;;20.40;99.90;;;;;;5077397;28;19925;-79
2023/05/07 12:33:44;;;;;;;;;;;20.60;99.90;;;;;;5077443;28;19924;-80
2023/05/07 12:36:12;;;;;;;;;;;20.70;99.90;;;;;;5094620;28;19925;-79
2023/05/07 12:38:38;;;;;;;;;;;20.90;99.90;;;;;;5060726;28;19925;-79
2023/05/07 12:41:04;;;;;;;;;;;20.90;99.90;;;;;;5078399;28;20509;-80
2023/05/07 12:43:30;;;;;;;;;;;21.00;99.90;;;;;;5059023;28;20318;-80
2023/05/07 12:46:06;;;;;;;;;;;21.00;99.90;;;;;;5077896;28;19946;-80
2023/05/07 12:48:32;;;;;;;;;;;21.20;99.90;;;;;;5060737;28;19924;-80
2023/05/07 12:50:59;;;;;;;;;;;21.50;99.90;;;;;;5077586;28;19969;-80
2023/05/07 12:53:26;;;;;;;;;;;21.60;99.90;;;;;;5066448;28;19929;-81
2023/05/07 12:55:53;;;;;;;;;;;21.60;99.90;;;;;;5085118;28;19925;-81
2023/05/07 12:58:20;;;;;;;;;;;21.70;99.90;;;;;;5073913;28;19932;-80
2023/05/07 13:00:47;;;;;;;;;;;21.70;99.90;;;;;;5086484;28;19925;-81
2023/05/07 13:03:20;;;;;;;;;;;21.80;99.90;;;;;;5048995;28;19928;-81
2023/05/07 13:05:45;;;;;;;;;;;21.80;99.90;;;;;;5052766;28;20024;-80
2023/05/07 13:08:11;;;;;;;;;;;21.70;99.90;;;;;;5068386;28;20159;-81
2023/05/07 13:10:37;;;;;;;;;;;21.50;99.90;;;;;;5059091;28;20439;-81
2023/05/07 13:13:02;;;;;;;;;;;21.30;99.90;;;;;;5050597;28;19925;-81
2023/05/07 13:15:28;;;;;;;;;;;21.10;99.90;;;;;;5077644;28;19932;-81
2023/05/07 13:17:53;;;;;;;;;;;21.00;99.90;;;;;;5059803;28;19942;-81
2023/05/07 13:20:19;;;;;;;;;;;20.90;99.90;;;;;;5060277;28;19964;-82
2023/05/07 13:22:45;;;;;;;;;;;20.70;99.90;;;;;;5093557;28;19978;-81
2023/05/07 13:25:10;;;;;;;;;;;20.50;99.90;;;;;;5065477;28;19931;-81
2023/05/07 13:27:36;;;;;;;;;;;20.40;99.90;;;;;;5042469;28;19981;-81
2023/05/07 13:30:03;;;;;;;;;;;20.40;99.90;;;;;;5069612;28;19928;-81
2023/05/07 13:32:28;;;;;;;;;;;20.40;99.90;;;;;;5091440;28;19933;-81
2023/05/07 13:34:54;;;;;;;;;;;20.50;99.90;;;;;;5091003;28;19967;-81
2023/05/07 13:37:20;;;;;;;;;;;20.50;99.90;;;;;;5060690;28;19928;-81
2023/05/07 13:39:45;;;;;;;;;;;20.50;99.90;;;;;;5091188;28;20015;-81
2023/05/07 13:42:11;;;;;;;;;;;20.50;99.90;;;;;;5093551;28;19925;-81
2023/05/07 13:44:36;;;;;;;;;;;20.40;99.90;;;;;;5090532;28;19935;-81
2023/05/07 13:47:02;;;;;;;;;;;20.30;99.90;;;;;;5058590;28;19936;-81
2023/05/07 13:49:28;;;;;;;;;;;20.30;99.90;;;;;;5094352;28;20429;-81
2023/05/07 13:51:53;;;;;;;;;;;20.30;99.90;;;;;;5073921;28;19924;-81
2023/05/07 13:54:19;;;;;;;;;;;20.30;99.90;;;;;;5043248;28;20357;-81
2023/05/07 13:56:44;;;;;;;;;;;20.40;99.90;;;;;;5042825;28;19925;-81
2023/05/07 13:59:10;;;;;;;;;;;20.40;99.90;;;;;;5043319;28;19932;-81
2023/05/07 14:01:35;;;;;;;;;;;20.30;99.90;;;;;;5060030;28;19924;-81
2023/05/07 14:04:01;;;;;;;;;;;20.40;99.90;;;;;;5091455;28;20353;-81
2023/05/07 14:06:27;;;;;;;;;;;20.40;99.90;;;;;;5091649;28;19928;-81
2023/05/07 14:08:52;;;;;;;;;;;20.40;99.90;;;;;;5064223;28;19935;-81
2023/05/07 14:11:18;;;;;;;;;;;20.30;99.90;;;;;;5069135;28;20339;-80